Time;durP1;ratioP1;P1;durP2;ratioP2;P2;SDS_P1;SDS_P2;PMS_P1;PMS_P2;Temp;Humidity;BMP_temperature;BMP_pressure;BME280_temperature;BME280_humidity;BME280_pressure;Samples;Min_cycle;Max_cycle;Signal;HPM_P1;HPM_P2
2023/12/31 00:00:08;;;;;;;;;;;;;;;10.58;51.26;101710.16;110522;1258;22460;-51
2023/12/31 00:02:37;;;;;;;;;;;;;;;10.57;51.20;101716.94;110441;1258;23679;-51
2023/12/31 00:05:04;;;;;;;;;;;;;;;10.55;51.09;101717.81;110569;1256;22480;-51
2023/12/31 00:07:32;;;;;;;;;;;;;;;10.54;51.02;101724.24;110432;1260;22444;-51
2023/12/31 00:09:58;;;;;;;;;;;;;;;10.52;51.11;101729.63;110292;1263;361369;-51
2023/12/31 00:12:25;;;;;;;;;;;;;;;10.50;51.16;101729.98;110571;1264;23275;-51
2023/12/31 00:14:52;;;;;;;;;;;;;;;10.49;51.25;101730.31;110612;1256;23365;-52
2023/12/31 00:17:18;;;;;;;;;;;;;;;10.48;51.14;101729.11;110409;1258;22507;-51
2023/12/31 00:19:45;;;;;;;;;;;;;;;10.47;51.21;101728.60;110585;1256;22430;-53
2023/12/31 00:22:12;;;;;;;;;;;;;;;10.47;51.17;101728.09;110580;1266;22412;-51
2023/12/31 00:24:39;;;;;;;;;;;;;;;10.45;51.14;101736.60;109598;1266;1002491;-51
2023/12/31 00:27:05;;;;;;;;;;;;;;;10.44;51.11;101740.95;109804;1256;1002838;-51
2023/12/31 00:29:32;;;;;;;;;;;;;;;10.43;51.16;101742.34;110581;1264;22512;-52
2023/12/31 00:32:00;;;;;;;;;;;;;;;10.42;51.08;101748.75;110595;1263;22435;-52
2023/12/31 00:34:26;;;;;;;;;;;;;;;10.42;51.11;101742.70;109813;1255;1002501;-51
2023/12/31 00:36:53;;;;;;;;;;;;;;;10.40;51.10;101741.31;110601;1254;22460;-52
2023/12/31 00:39:20;;;;;;;;;;;;;;;10.40;51.07;101743.73;110590;1261;22425;-53
2023/12/31 00:41:47;;;;;;;;;;;;;;;10.39;50.98;101744.42;110603;1256;22775;-52
2023/12/31 00:44:14;;;;;;;;;;;;;;;10.38;51.12;101746.35;110558;1257;22455;-52
2023/12/31 00:46:40;;;;;;;;;;;;;;;10.37;51.01;101745.66;110558;1260;23243;-52
2023/12/31 00:49:07;;;;;;;;;;;;;;;10.36;51.12;101744.46;110586;1257;22598;-51
2023/12/31 00:51:34;;;;;;;;;;;;;;;10.36;51.09;101748.11;109854;1254;1002567;-51
2023/12/31 00:54:00;;;;;;;;;;;;;;;10.36;51.18;101752.44;110243;1260;22551;-52
2023/12/31 00:56:28;;;;;;;;;;;;;;;10.35;51.21;101752.61;110308;1268;22635;-52
2023/12/31 00:58:54;;;;;;;;;;;;;;;10.37;51.40;101754.34;110620;1252;23215;-51
2023/12/31 01:01:21;;;;;;;;;;;;;;;10.36;51.41;101764.23;110548;1251;23228;-52
2023/12/31 01:03:48;;;;;;;;;;;;;;;10.37;51.56;101763.70;109841;1254;1002299;-52
2023/12/31 01:06:15;;;;;;;;;;;;;;;10.39;51.63;101764.38;110569;1258;22450;-52
2023/12/31 01:08:42;;;;;;;;;;;;;;;10.40;51.70;101766.81;110598;1256;22434;-51
2023/12/31 01:11:08;;;;;;;;;;;;;;;10.41;51.66;101769.41;110578;1262;23272;-52
2023/12/31 01:13:35;;;;;;;;;;;;;;;10.42;51.56;101770.45;110643;1251;23192;-51
2023/12/31 01:16:01;;;;;;;;;;;;;;;10.42;51.60;101772.52;110513;1261;23525;-52
2023/12/31 01:18:28;;;;;;;;;;;;;;;10.43;51.70;101782.76;110583;1256;22516;-52
2023/12/31 01:20:56;;;;;;;;;;;;;;;10.44;51.60;101783.45;110512;1264;22437;-52
2023/12/31 01:23:22;;;;;;;;;;;;;;;10.44;51.56;101783.80;110293;1261;23143;-51
2023/12/31 01:25:49;;;;;;;;;;;;;;;10.44;51.59;101781.19;110571;1257;23262;-52
2023/12/31 01:28:16;;;;;;;;;;;;;;;10.45;51.61;101783.60;110569;1251;22445;-51
2023/12/31 01:30:43;;;;;;;;;;;;;;;10.45;51.49;101779.96;110188;1260;22468;-51
2023/12/31 01:33:10;;;;;;;;;;;;;;;10.45;51.49;101773.02;110490;1256;23230;-52
2023/12/31 01:35:37;;;;;;;;;;;;;;;10.46;51.44;101771.64;110581;1257;22467;-51
2023/12/31 01:38:03;;;;;;;;;;;;;;;10.47;51.46;101773.19;110584;1251;22442;-52
2023/12/31 01:40:30;;;;;;;;;;;;;;;10.46;51.40;101768.34;110589;1256;22446;-51
2023/12/31 01:42:57;;;;;;;;;;;;;;;10.46;51.31;101766.77;110570;1254;22444;-52
2023/12/31 01:45:24;;;;;;;;;;;;;;;10.46;51.39;101768.52;110638;1257;23359;-53
2023/12/31 01:47:51;;;;;;;;;;;;;;;10.46;51.37;101770.59;110199;1269;22491;-52
2023/12/31 01:50:18;;;;;;;;;;;;;;;10.46;51.31;101763.31;110485;1260;22505;-52
2023/12/31 01:52:44;;;;;;;;;;;;;;;10.46;51.40;101768.34;110113;1271;22472;-51
2023/12/31 01:55:12;;;;;;;;;;;;;;;10.44;51.31;101772.85;110526;1265;22418;-51
2023/12/31 01:57:40;;;;;;;;;;;;;;;10.41;51.34;101773.23;110491;1254;22606;-52
2023/12/31 02:00:07;;;;;;;;;;;;;;;10.37;51.55;101773.94;110263;1273;23212;-52
2023/12/31 02:02:43;;;;;;;;;;;;;;;10.36;51.71;101774.98;110285;1271;22429;-52
2023/12/31 02:05:11;;;;;;;;;;;;;;;10.34;51.69;101780.02;110510;1260;22588;-52
2023/12/31 02:07:38;;;;;;;;;;;;;;;10.32;51.76;101782.98;110557;1253;22543;-51
2023/12/31 02:10:05;;;;;;;;;;;;;;;10.25;51.79;101786.83;110538;1257;22449;-52
2023/12/31 02:12:31;;;;;;;;;;;;;;;10.17;51.99;101787.73;110574;1251;22516;-52
2023/12/31 02:14:58;;;;;;;;;;;;;;;10.11;52.19;101783.92;110396;1259;23298;-51
2023/12/31 02:17:25;;;;;;;;;;;;;;;10.07;52.36;101786.85;110501;1256;22467;-51
2023/12/31 02:19:51;;;;;;;;;;;;;;;10.07;52.54;101790.48;110384;1260;22441;-52
2023/12/31 02:22:18;;;;;;;;;;;;;;;10.06;52.62;101796.91;109721;1257;1002823;-52
2023/12/31 02:24:48;;;;;;;;;;;;;;;10.05;52.70;101803.67;109732;1257;1002461;-52
2023/12/31 02:27:15;;;;;;;;;;;;;;;10.03;52.92;101801.59;110497;1254;22415;-51
2023/12/31 02:29:42;;;;;;;;;;;;;;;10.02;53.00;101801.77;110611;1259;22528;-52
2023/12/31 02:32:08;;;;;;;;;;;;;;;10.03;52.98;101798.66;110526;1274;23498;-52
2023/12/31 02:34:35;;;;;;;;;;;;;;;10.06;52.95;101799.69;110559;1251;22424;-52
2023/12/31 02:37:02;;;;;;;;;;;;;;;10.07;53.04;101803.49;110625;1256;22472;-52
2023/12/31 02:39:29;;;;;;;;;;;;;;;10.10;53.04;101802.83;110426;1261;22455;-51
2023/12/31 02:41:56;;;;;;;;;;;;;;;10.11;53.08;101803.69;110551;1255;23266;-52
2023/12/31 02:44:23;;;;;;;;;;;;;;;10.14;53.19;101806.98;109814;1256;1006156;-51
2023/12/31 02:46:51;;;;;;;;;;;;;;;10.16;53.05;101810.79;110613;1251;23363;-52
2023/12/31 02:49:17;;;;;;;;;;;;;;;10.17;53.00;101809.92;110306;1257;22536;-52
2023/12/31 02:51:45;;;;;;;;;;;;;;;10.19;52.96;101814.77;110560;1253;22465;-52
2023/12/31 02:54:12;;;;;;;;;;;;;;;10.19;52.85;101816.52;110228;1257;22417;-52
2023/12/31 02:56:40;;;;;;;;;;;;;;;10.16;52.87;101814.78;110555;1253;22447;-52
2023/12/31 02:59:07;;;;;;;;;;;;;;;10.15;52.98;101820.85;109749;1253;1002645;-52
2023/12/31 03:01:33;;;;;;;;;;;;;;;10.14;52.96;101820.16;110211;1260;23282;-51
2023/12/31 03:04:00;;;;;;;;;;;;;;;10.12;53.09;101826.92;110463;1254;22469;-52
2023/12/31 03:06:28;;;;;;;;;;;;;;;10.11;53.22;101828.32;110596;1256;22427;-52
2023/12/31 03:08:58;;;;;;;;;;;;;;;10.10;53.23;101831.42;110540;1251;22443;-52
2023/12/31 03:11:27;;;;;;;;;;;;;;;10.11;53.12;101833.70;109828;1260;1007093;-52
2023/12/31 03:13:53;;;;;;;;;;;;;;;10.10;53.22;101830.38;110408;1261;22460;-51
2023/12/31 03:16:20;;;;;;;;;;;;;;;10.08;53.17;101833.84;110573;1251;23140;-52
2023/12/31 03:18:47;;;;;;;;;;;;;;;10.09;53.24;101833.66;110604;1255;22483;-52
2023/12/31 03:21:15;;;;;;;;;;;;;;;10.12;53.08;101832.48;110565;1256;23156;-52
2023/12/31 03:23:43;;;;;;;;;;;;;;;10.18;52.89;101830.55;110612;1253;22460;-53
2023/12/31 03:26:09;;;;;;;;;;;;;;;10.22;52.73;101833.48;110548;1263;22425;-51
2023/12/31 03:28:36;;;;;;;;;;;;;;;10.26;52.57;101840.59;110468;1254;23188;-52
2023/12/31 03:31:04;;;;;;;;;;;;;;;10.28;52.50;101840.23;110594;1256;23474;-52
2023/12/31 03:33:31;;;;;;;;;;;;;;;10.27;52.43;101843.02;110595;1251;23167;-52
2023/12/31 03:35:58;;;;;;;;;;;;;;;10.24;52.35;101843.54;110593;1251;23148;-52
2023/12/31 03:38:24;;;;;;;;;;;;;;;10.24;52.27;101849.44;109791;1254;1002648;-52
2023/12/31 03:40:51;;;;;;;;;;;;;;;10.24;52.19;101849.09;109851;1251;1003157;-52
2023/12/31 03:43:18;;;;;;;;;;;;;;;10.22;52.24;101853.27;110573;1254;22437;-51
2023/12/31 03:45:46;;;;;;;;;;;;;;;10.22;51.99;101851.00;110582;1251;22435;-51
2023/12/31 03:48:13;;;;;;;;;;;;;;;10.23;51.93;101863.31;110558;1251;22413;-51
2023/12/31 03:50:40;;;;;;;;;;;;;;;10.21;51.81;101866.09;110597;1251;22459;-52
2023/12/31 03:53:06;;;;;;;;;;;;;;;10.17;51.87;101867.48;110563;1256;23085;-51
2023/12/31 03:55:33;;;;;;;;;;;;;;;10.11;52.01;101872.17;110538;1256;22451;-52
2023/12/31 03:58:00;;;;;;;;;;;;;;;10.06;52.09;101871.46;110625;1254;22439;-52
2023/12/31 04:00:27;;;;;;;;;;;;;;;10.03;52.16;101871.80;110438;1254;22644;-51
2023/12/31 04:02:54;;;;;;;;;;;;;;;10.02;52.31;101871.46;110578;1267;22443;-52
2023/12/31 04:05:20;;;;;;;;;;;;;;;10.02;52.39;101871.81;110155;1267;22425;-52
2023/12/31 04:07:48;;;;;;;;;;;;;;;10.06;52.41;101873.73;110578;1255;23226;-51
2023/12/31 04:10:17;;;;;;;;;;;;;;;10.10;52.60;101876.33;110619;1255;23059;-51
2023/12/31 04:12:44;;;;;;;;;;;;;;;10.08;52.51;101873.54;110590;1263;22405;-52
2023/12/31 04:15:11;;;;;;;;;;;;;;;10.04;52.63;101869.55;109849;1259;1002885;-51
2023/12/31 04:17:38;;;;;;;;;;;;;;;10.04;52.56;101874.40;109826;1260;1002131;-52
2023/12/31 04:20:05;;;;;;;;;;;;;;;10.07;52.59;101873.89;110554;1259;22426;-52
2023/12/31 04:22:32;;;;;;;;;;;;;;;10.13;52.53;101879.45;110466;1256;23280;-52
2023/12/31 04:25:01;;;;;;;;;;;;;;;10.18;52.49;101887.77;110514;1254;22432;-51
2023/12/31 04:27:30;;;;;;;;;;;;;;;10.24;52.41;101897.46;110559;1264;22428;-52
2023/12/31 04:29:56;;;;;;;;;;;;;;;10.40;51.80;101903.67;110586;1263;22437;-52
2023/12/31 04:32:25;;;;;;;;;;;;;;;10.38;51.74;101900.20;110566;1252;23221;-51
2023/12/31 04:34:51;;;;;;;;;;;;;;;10.33;51.81;101899.35;110474;1262;22418;-52
2023/12/31 04:37:20;;;;;;;;;;;;;;;10.30;51.86;101906.12;110609;1253;22902;-52
2023/12/31 04:39:46;;;;;;;;;;;;;;;10.25;51.99;101907.70;110614;1256;23284;-52
2023/12/31 04:42:13;;;;;;;;;;;;;;;10.21;52.02;101915.51;109768;1254;1002658;-51
2023/12/31 04:44:40;;;;;;;;;;;;;;;10.16;52.03;101908.92;110343;1256;22527;-52
2023/12/31 04:47:07;;;;;;;;;;;;;;;10.12;52.29;101906.34;110501;1260;22490;-51
2023/12/31 04:49:35;;;;;;;;;;;;;;;10.11;52.33;101908.41;110564;1256;23238;-52
2023/12/31 04:52:02;;;;;;;;;;;;;;;10.14;52.30;101913.44;110494;1255;22457;-52
2023/12/31 04:54:29;;;;;;;;;;;;;;;10.16;52.16;101927.30;109475;1275;1002212;-52
2023/12/31 04:56:56;;;;;;;;;;;;;;;10.12;52.27;101923.14;109749;1257;1002176;-52
2023/12/31 04:59:22;;;;;;;;;;;;;;;10.06;52.35;101925.55;110374;1258;22495;-52
2023/12/31 05:01:49;;;;;;;;;;;;;;;10.02;52.40;101931.28;110336;1260;22457;-52
2023/12/31 05:04:16;;;;;;;;;;;;;;;10.00;52.48;101934.39;110599;1252;22955;-52
2023/12/31 05:06:43;;;;;;;;;;;;;;;9.97;52.44;101936.13;110592;1267;23198;-52
2023/12/31 05:09:11;;;;;;;;;;;;;;;9.96;52.46;101935.96;110603;1256;22443;-51
2023/12/31 05:11:37;;;;;;;;;;;;;;;9.94;52.45;101946.71;110359;1256;22537;-52
2023/12/31 05:14:05;;;;;;;;;;;;;;;9.93;52.42;101948.27;110596;1253;23228;-52
2023/12/31 05:16:31;;;;;;;;;;;;;;;9.94;52.62;101948.61;110588;1252;22451;-51
2023/12/31 05:18:59;;;;;;;;;;;;;;;9.94;52.42;101953.11;110431;1257;23134;-51
2023/12/31 05:21:26;;;;;;;;;;;;;;;9.95;52.43;101961.27;110655;1256;22413;-52
2023/12/31 05:23:52;;;;;;;;;;;;;;;9.95;52.52;101969.25;109805;1252;1003231;-52
2023/12/31 05:26:19;;;;;;;;;;;;;;;9.95;52.64;101968.02;110568;1253;22482;-51
2023/12/31 05:28:46;;;;;;;;;;;;;;;9.97;52.61;101968.73;110612;1251;22431;-52
2023/12/31 05:31:13;;;;;;;;;;;;;;;10.03;52.56;101965.60;110603;1263;22671;-51
2023/12/31 05:33:43;;;;;;;;;;;;;;;10.08;52.40;101962.30;110597;1254;22429;-51
2023/12/31 05:36:10;;;;;;;;;;;;;;;10.13;52.17;101960.27;110463;1256;22524;-51
2023/12/31 05:38:37;;;;;;;;;;;;;;;10.17;51.99;101958.69;109478;1260;1002585;-52
2023/12/31 05:41:04;;;;;;;;;;;;;;;10.20;51.83;101951.23;110600;1252;23181;-54
2023/12/31 05:43:31;;;;;;;;;;;;;;;10.22;51.67;101952.27;110597;1264;22401;-52
2023/12/31 05:45:58;;;;;;;;;;;;;;;10.24;51.56;101959.36;110560;1263;22554;-52
2023/12/31 05:48:24;;;;;;;;;;;;;;;10.26;51.38;101962.83;110309;1258;22647;-51
2023/12/31 05:50:53;;;;;;;;;;;;;;;10.27;51.45;101969.59;109772;1255;1002179;-51
2023/12/31 05:53:19;;;;;;;;;;;;;;;10.24;51.37;101972.39;110589;1259;22429;-51
2023/12/31 05:55:46;;;;;;;;;;;;;;;10.21;51.22;101979.14;110630;1251;22432;-52
2023/12/31 05:58:13;;;;;;;;;;;;;;;10.18;51.11;101988.01;110570;1270;22394;-52
2023/12/31 06:00:40;;;;;;;;;;;;;;;10.12;51.22;101989.22;110597;1262;22393;-51
2023/12/31 06:03:07;;;;;;;;;;;;;;;10.08;51.39;101987.44;110603;1256;22440;-51
2023/12/31 06:05:34;;;;;;;;;;;;;;;10.08;51.28;101987.09;109055;1262;2002397;-52
2023/12/31 06:08:01;;;;;;;;;;;;;;;10.11;51.23;101989.39;109837;1267;1002131;-52
2023/12/31 06:10:30;;;;;;;;;;;;;;;10.15;51.17;101991.81;110387;1267;22448;-51
2023/12/31 06:12:56;;;;;;;;;;;;;;;10.18;51.13;101999.95;110309;1264;22567;-51
2023/12/31 06:15:23;;;;;;;;;;;;;;;10.22;51.05;102006.21;110542;1255;22466;-52
2023/12/31 06:17:50;;;;;;;;;;;;;;;10.22;51.17;102001.34;110596;1256;22455;-52
2023/12/31 06:20:16;;;;;;;;;;;;;;;10.24;51.19;101997.88;110643;1252;22472;-51
2023/12/31 06:22:43;;;;;;;;;;;;;;;10.29;51.15;102000.48;110572;1262;22409;-52
2023/12/31 06:25:10;;;;;;;;;;;;;;;10.33;50.94;102003.94;110564;1256;22425;-51
2023/12/31 06:27:38;;;;;;;;;;;;;;;10.36;50.84;102011.91;110572;1256;22425;-52
2023/12/31 06:30:05;;;;;;;;;;;;;;;10.35;50.64;102013.81;110587;1262;22425;-52
2023/12/31 06:32:32;;;;;;;;;;;;;;;10.32;50.57;102012.27;110611;1266;22448;-52
2023/12/31 06:34:59;;;;;;;;;;;;;;;10.32;50.58;102011.92;110633;1252;23203;-52
2023/12/31 06:37:25;;;;;;;;;;;;;;;10.32;50.57;102014.34;110371;1260;22465;-53
2023/12/31 06:39:52;;;;;;;;;;;;;;;10.31;50.55;102010.36;110318;1264;22449;-51
2023/12/31 06:42:19;;;;;;;;;;;;;;;10.33;50.67;102015.21;110593;1251;23388;-52
2023/12/31 06:44:46;;;;;;;;;;;;;;;10.36;50.65;102016.24;110586;1256;22429;-52
2023/12/31 06:47:13;;;;;;;;;;;;;;;10.39;50.69;102015.20;110564;1256;23172;-52
2023/12/31 06:49:39;;;;;;;;;;;;;;;10.42;50.59;102019.54;110410;1266;22507;-52
2023/12/31 06:52:06;;;;;;;;;;;;;;;10.46;50.60;102024.39;110614;1250;22479;-52
2023/12/31 06:54:33;;;;;;;;;;;;;;;10.50;50.61;102025.42;110625;1256;23226;-52
2023/12/31 06:56:59;;;;;;;;;;;;;;;10.52;50.63;102023.86;110589;1256;23184;-52
2023/12/31 06:59:26;;;;;;;;;;;;;;;10.52;50.84;102023.17;110602;1256;22539;-52
2023/12/31 07:01:53;;;;;;;;;;;;;;;10.52;50.89;102029.77;110572;1256;22486;-53
2023/12/31 07:04:19;;;;;;;;;;;;;;;10.52;50.90;102036.36;110585;1262;22419;-52
2023/12/31 07:06:47;;;;;;;;;;;;;;;10.49;50.75;102035.14;110617;1255;22439;-52
2023/12/31 07:09:14;;;;;;;;;;;;;;;10.44;50.98;102040.36;109852;1253;1006360;-52
2023/12/31 07:11:41;;;;;;;;;;;;;;;10.41;51.16;102042.79;109482;1267;1003068;-52
2023/12/31 07:14:08;;;;;;;;;;;;;;;10.41;51.34;102045.90;110578;1255;23299;-53
2023/12/31 07:16:34;;;;;;;;;;;;;;;10.45;51.42;102047.13;110286;1260;23243;-52
2023/12/31 07:19:01;;;;;;;;;;;;;;;10.48;51.44;102046.25;110616;1252;22419;-52
2023/12/31 07:21:28;;;;;;;;;;;;;;;10.52;51.54;102046.77;110638;1254;23220;-52
2023/12/31 07:23:56;;;;;;;;;;;;;;;10.54;51.56;102053.19;110616;1256;22445;-52
2023/12/31 07:26:26;;;;;;;;;;;;;;;10.56;51.72;102049.89;110662;1252;22430;-52
2023/12/31 07:28:52;;;;;;;;;;;;;;;10.61;51.65;102052.65;110618;1253;22431;-52
2023/12/31 07:31:36;;;;;;;;;;;;;;;10.68;51.63;102051.95;110305;1258;22423;-52
2023/12/31 07:34:03;;;;;;;;;;;;;;;10.72;51.50;102052.30;109840;1262;1002448;-52
2023/12/31 07:36:30;;;;;;;;;;;;;;;10.75;51.58;102052.98;110622;1259;22461;-52
2023/12/31 07:38:57;;;;;;;;;;;;;;;10.79;51.56;102056.45;110594;1259;22428;-52
2023/12/31 07:41:23;;;;;;;;;;;;;;;10.83;51.45;102061.47;110620;1259;22470;-52
2023/12/31 07:43:50;;;;;;;;;;;;;;;10.86;51.30;102067.71;110652;1261;22438;-52
2023/12/31 07:46:17;;;;;;;;;;;;;;;10.86;51.19;102072.74;110655;1257;22895;-52
2023/12/31 07:48:46;;;;;;;;;;;;;;;10.84;51.14;102076.92;110612;1253;24015;-52
2023/12/31 07:51:13;;;;;;;;;;;;;;;10.82;51.14;102077.26;110608;1262;22419;-52
2023/12/31 07:53:40;;;;;;;;;;;;;;;10.83;51.28;102077.79;110584;1258;22460;-52
2023/12/31 07:56:07;;;;;;;;;;;;;;;10.84;51.30;102081.77;110595;1252;22431;-52
2023/12/31 07:58:35;;;;;;;;;;;;;;;10.86;51.12;102081.94;110503;1256;22439;-52
2023/12/31 08:01:02;;;;;;;;;;;;;;;10.84;51.04;102085.07;110663;1264;23082;-52
2023/12/31 08:03:30;;;;;;;;;;;;;;;10.82;50.96;102092.19;110586;1251;22461;-52
2023/12/31 08:05:57;;;;;;;;;;;;;;;10.81;51.12;102088.38;109855;1256;1003376;-52
2023/12/31 08:08:24;;;;;;;;;;;;;;;10.81;51.05;102087.52;110573;1252;23097;-52
2023/12/31 08:10:51;;;;;;;;;;;;;;;10.81;51.05;102091.31;110616;1252;22458;-52
2023/12/31 08:13:18;;;;;;;;;;;;;;;10.82;50.96;102092.89;110442;1257;22435;-52
2023/12/31 08:15:45;;;;;;;;;;;;;;;10.83;51.08;102092.55;110646;1252;22475;-52
2023/12/31 08:18:12;;;;;;;;;;;;;;;10.83;51.05;102096.35;110592;1257;22449;-52
2023/12/31 08:20:39;;;;;;;;;;;;;;;10.83;51.15;102097.58;110617;1259;22430;-52
2023/12/31 08:23:07;;;;;;;;;;;;;;;10.85;51.22;102098.96;110611;1256;23224;-52
2023/12/31 08:25:34;;;;;;;;;;;;;;;10.89;51.30;102094.09;110244;1274;22425;-53
2023/12/31 08:28:01;;;;;;;;;;;;;;;10.95;51.43;102094.78;110640;1252;22415;-52
2023/12/31 08:30:28;;;;;;;;;;;;;;;11.02;51.58;102096.33;110660;1256;22413;-52
2023/12/31 08:32:54;;;;;;;;;;;;;;;11.07;51.59;102094.23;110665;1255;22402;-52
2023/12/31 08:35:23;;;;;;;;;;;;;;;11.14;51.82;102098.03;109776;1256;1003160;-52
2023/12/31 08:37:50;;;;;;;;;;;;;;;11.26;51.78;102101.98;110657;1255;22417;-52
2023/12/31 08:40:19;;;;;;;;;;;;;;;11.40;51.94;102103.67;110610;1252;22433;-52
2023/12/31 08:42:45;;;;;;;;;;;;;;;11.56;51.94;102105.01;110633;1255;22429;-52
2023/12/31 08:45:12;;;;;;;;;;;;;;;11.69;51.74;102098.54;110607;1257;22481;-52
2023/12/31 08:47:39;;;;;;;;;;;;;;;11.83;51.58;102099.88;110362;1271;22443;-52
2023/12/31 08:50:09;;;;;;;;;;;;;;;11.95;51.45;102096.14;110581;1267;22505;-52
2023/12/31 08:52:42;;;;;;;;;;;;;;;12.07;51.44;102097.10;110560;1252;22734;-52
2023/12/31 08:55:09;;;;;;;;;;;;;;;12.19;51.22;102090.41;110441;1258;22447;-52
2023/12/31 08:57:36;;;;;;;;;;;;;;;12.28;51.00;102087.21;110652;1255;22447;-52
2023/12/31 09:00:03;;;;;;;;;;;;;;;12.39;50.82;102083.28;110628;1253;22484;-52
2023/12/31 09:02:30;;;;;;;;;;;;;;;12.50;50.59;102089.30;110593;1254;22612;-52
2023/12/31 09:04:59;;;;;;;;;;;;;;;12.57;50.18;102103.67;110600;1261;23243;-53
2023/12/31 09:07:26;;;;;;;;;;;;;;;12.55;49.68;102115.52;110594;1259;22456;-52
2023/12/31 09:09:53;;;;;;;;;;;;;;;12.44;49.31;102117.89;109862;1254;1002414;-52
2023/12/31 09:12:20;;;;;;;;;;;;;;;12.35;49.37;102107.34;109831;1252;1002526;-52
2023/12/31 09:14:47;;;;;;;;;;;;;;;12.30;49.27;102117.83;110361;1256;22450;-52
2023/12/31 09:17:13;;;;;;;;;;;;;;;12.20;49.16;102118.59;110325;1260;22497;-52
2023/12/31 09:19:40;;;;;;;;;;;;;;;12.07;49.28;102110.67;110449;1270;22445;-52
2023/12/31 09:22:07;;;;;;;;;;;;;;;12.01;49.59;102107.93;110611;1267;22454;-52
2023/12/31 09:24:35;;;;;;;;;;;;;;;12.03;49.82;102103.58;110590;1255;22434;-52
2023/12/31 09:27:02;;;;;;;;;;;;;;;12.09;49.83;102105.61;110305;1255;22519;-52
2023/12/31 09:29:30;;;;;;;;;;;;;;;12.11;49.81;102102.81;110536;1257;23167;-52
2023/12/31 09:31:56;;;;;;;;;;;;;;;12.10;49.73;102101.10;110479;1256;22468;-52
2023/12/31 09:34:23;;;;;;;;;;;;;;;12.06;49.66;102089.97;110625;1264;22416;-53
2023/12/31 09:36:50;;;;;;;;;;;;;;;12.02;49.71;102088.27;110588;1260;22425;-52
2023/12/31 09:39:17;;;;;;;;;;;;;;;11.98;49.89;102084.64;110667;1258;22418;-52
2023/12/31 09:41:45;;;;;;;;;;;;;;;11.99;50.26;102085.84;109862;1253;1002887;-52
2023/12/31 09:44:11;;;;;;;;;;;;;;;12.05;50.38;102088.23;110511;1258;22443;-52
2023/12/31 09:46:38;;;;;;;;;;;;;;;12.11;50.48;102088.03;110582;1251;23093;-52
2023/12/31 09:49:05;;;;;;;;;;;;;;;12.17;50.28;102087.47;110620;1262;22435;-52
2023/12/31 09:51:32;;;;;;;;;;;;;;;12.20;50.10;102089.00;110360;1267;22459;-52
2023/12/31 09:53:59;;;;;;;;;;;;;;;12.26;50.02;102088.27;110367;1265;22653;-52
2023/12/31 09:56:27;;;;;;;;;;;;;;;12.34;50.05;102083.52;110635;1260;22430;-52
2023/12/31 09:58:53;;;;;;;;;;;;;;;12.42;50.01;102084.83;110587;1254;22520;-52
2023/12/31 10:01:32;;;;;;;;;;;;;;;12.53;49.65;102086.14;110555;1257;22432;-52
2023/12/31 10:03:59;;;;;;;;;;;;;;;12.57;49.27;102084.70;110567;1256;22424;-52
2023/12/31 10:06:26;;;;;;;;;;;;;;;12.61;49.22;102081.88;110671;1255;23053;-52
2023/12/31 10:08:53;;;;;;;;;;;;;;;12.67;49.24;102078.52;109830;1256;1002989;-53
2023/12/31 10:11:19;;;;;;;;;;;;;;;12.76;49.33;102066.94;109584;1260;1002354;-52
2023/12/31 10:13:47;;;;;;;;;;;;;;;12.85;49.18;102064.23;110373;1259;22440;-53
2023/12/31 10:16:14;;;;;;;;;;;;;;;12.95;48.91;102063.61;109595;1262;1002407;-52
2023/12/31 10:18:41;;;;;;;;;;;;;;;13.03;48.54;102059.35;110388;1259;22539;-52
2023/12/31 10:21:09;;;;;;;;;;;;;;;13.13;48.36;102059.63;110363;1258;22483;-52
2023/12/31 10:23:36;;;;;;;;;;;;;;;13.25;48.21;102054.23;110354;1259;22469;-52
2023/12/31 10:26:03;;;;;;;;;;;;;;;13.41;47.93;102048.46;110369;1259;22448;-52
2023/12/31 10:28:29;;;;;;;;;;;;;;;13.55;47.16;102050.19;110035;1269;22437;-52
2023/12/31 10:30:57;;;;;;;;;;;;;;;13.60;46.41;102044.55;110389;1259;22476;-52
2023/12/31 10:33:27;;;;;;;;;;;;;;;13.66;46.19;102044.46;110386;1259;22526;-52
2023/12/31 10:36:02;;;;;;;;;;;;;;;13.72;45.88;102044.89;110374;1256;22520;-53
2023/12/31 10:38:29;;;;;;;;;;;;;;;13.73;45.84;102038.25;110338;1267;22559;-53
2023/12/31 10:41:05;;;;;;;;;;;;;;;13.72;45.78;102035.65;110398;1259;22438;-52
2023/12/31 10:43:32;;;;;;;;;;;;;;;13.71;46.04;102028.86;109717;1259;1002705;-53
2023/12/31 10:46:01;;;;;;;;;;;;;;;13.73;45.79;102025.34;110481;1257;22425;-52
2023/12/31 10:48:27;;;;;;;;;;;;;;;13.75;45.78;102015.20;110543;1257;22548;-52
2023/12/31 10:50:54;;;;;;;;;;;;;;;13.81;45.84;102009.00;110607;1256;22433;-53
2023/12/31 10:53:21;;;;;;;;;;;;;;;13.88;45.50;102002.27;110625;1256;22804;-52
2023/12/31 10:55:48;;;;;;;;;;;;;;;13.93;45.18;101997.13;110336;1271;22448;-53
2023/12/31 10:58:16;;;;;;;;;;;;;;;13.95;44.80;101992.73;110577;1257;22429;-53
2023/12/31 11:00:43;;;;;;;;;;;;;;;13.95;44.69;101991.17;110616;1253;22417;-53
2023/12/31 11:03:13;;;;;;;;;;;;;;;13.98;44.87;101986.23;109845;1254;1002427;-53
2023/12/31 11:05:40;;;;;;;;;;;;;;;14.03;44.64;101989.13;110656;1255;23142;-54
2023/12/31 11:08:08;;;;;;;;;;;;;;;14.06;44.41;101987.15;109853;1255;1002900;-52
2023/12/31 11:10:35;;;;;;;;;;;;;;;14.09;44.19;101987.64;110568;1262;22438;-52
2023/12/31 11:13:01;;;;;;;;;;;;;;;14.12;44.20;101986.88;110609;1256;22436;-52
2023/12/31 11:15:29;;;;;;;;;;;;;;;14.13;44.03;101984.94;109800;1257;1002867;-52
2023/12/31 11:18:05;;;;;;;;;;;;;;;14.13;43.56;101984.41;109504;1260;1003055;-53
2023/12/31 11:20:38;;;;;;;;;;;;;;;14.14;43.55;101983.69;110602;1257;22445;-53
2023/12/31 11:23:10;;;;;;;;;;;;;;;14.18;43.51;101976.83;110595;1253;22512;-53
2023/12/31 11:25:40;;;;;;;;;;;;;;;14.21;43.19;101974.50;110597;1254;22417;-53
2023/12/31 11:28:07;;;;;;;;;;;;;;;14.24;42.77;101974.80;110645;1260;22476;-53
2023/12/31 11:30:52;;;;;;;;;;;;;;;14.26;42.60;101973.55;110630;1255;22493;-52
2023/12/31 11:33:20;;;;;;;;;;;;;;;14.28;42.50;101974.91;110605;1262;22440;-52
2023/12/31 11:35:48;;;;;;;;;;;;;;;14.33;42.13;101975.38;110594;1269;22436;-53
2023/12/31 11:38:15;;;;;;;;;;;;;;;14.33;41.81;101977.81;110563;1254;22457;-53
2023/12/31 11:40:41;;;;;;;;;;;;;;;14.34;41.83;101978.68;110301;1258;22500;-53
2023/12/31 11:43:09;;;;;;;;;;;;;;;14.37;41.93;101974.26;110584;1272;22442;-53
2023/12/31 11:45:40;;;;;;;;;;;;;;;14.40;41.78;101979.42;110595;1262;22439;-53
2023/12/31 11:48:36;;;;;;;;;;;;;;;14.44;41.49;101980.59;110355;1258;23250;-53
2023/12/31 11:51:03;;;;;;;;;;;;;;;14.45;41.14;101975.15;110013;1270;22450;-53
2023/12/31 11:53:48;;;;;;;;;;;;;;;14.45;41.21;101978.46;110060;1261;22570;-53
2023/12/31 11:56:15;;;;;;;;;;;;;;;14.48;41.23;101974.21;110001;1263;22422;-53
2023/12/31 11:58:42;;;;;;;;;;;;;;;14.50;41.29;101975.58;110019;1261;22463;-53
2023/12/31 12:01:09;;;;;;;;;;;;;;;14.56;41.28;101974.94;109875;1267;22435;-52
2023/12/31 12:03:36;;;;;;;;;;;;;;;14.63;41.07;101970.63;109993;1281;22511;-53
2023/12/31 12:06:03;;;;;;;;;;;;;;;14.66;40.54;101969.32;110057;1264;22398;-53
2023/12/31 12:08:30;;;;;;;;;;;;;;;14.68;40.40;101964.92;110042;1264;22454;-53
2023/12/31 12:10:57;;;;;;;;;;;;;;;14.71;40.35;101964.70;109721;1265;329234;-53
2023/12/31 12:13:24;;;;;;;;;;;;;;;14.73;40.22;101965.19;110056;1261;22452;-53
2023/12/31 12:15:50;;;;;;;;;;;;;;;14.75;40.05;101965.34;109947;1261;22446;-53
2023/12/31 12:18:21;;;;;;;;;;;;;;;14.75;40.01;101969.69;110025;1263;22532;-53
2023/12/31 12:20:48;;;;;;;;;;;;;;;14.78;39.81;101971.55;109938;1262;23097;-53
2023/12/31 12:23:18;;;;;;;;;;;;;;;14.80;39.85;101969.41;109857;1276;22451;-53
2023/12/31 12:25:44;;;;;;;;;;;;;;;14.86;40.17;101971.76;110035;1262;22476;-53